Time;durP1;ratioP1;P1;durP2;ratioP2;P2;SDS_P1;SDS_P2;PMS_P1;PMS_P2;Temp;Humidity;BMP_temperature;BMP_pressure;BME280_temperature;BME280_humidity;BME280_pressure;Samples;Min_cycle;Max_cycle;Signal;HPM_P1;HPM_P2
2023/05/08 02:42:25;;;;;;;41.97;39.10;;;16.60;99.90;;;;;;5399069;23;20502;-73
2023/05/08 02:44:52;;;;;;;42.80;39.60;;;16.60;99.90;;;;;;4969910;28;20466;-72
2023/05/08 02:47:22;;;;;;;42.17;39.20;;;16.60;99.90;;;;;;4969690;28;20815;-73
2023/05/08 02:49:52;;;;;;;40.73;38.03;;;16.70;99.90;;;;;;4967556;28;20452;-74
2023/05/08 02:52:23;;;;;;;45.70;42.60;;;16.70;99.90;;;;;;4969517;28;20436;-73
2023/05/08 02:54:58;;;;;;;43.73;40.83;;;16.60;99.90;;;;;;4968020;28;20440;-73
2023/05/08 02:57:36;;;;;;;42.57;39.53;;;16.70;99.90;;;;;;4965572;28;20459;-74
2023/05/08 03:00:05;;;;;;;43.17;40.23;;;16.70;99.90;;;;;;4969836;28;20486;-73
2023/05/08 03:02:39;;;;;;;45.40;41.97;;;16.60;99.90;;;;;;4969878;28;20459;-74
2023/05/08 03:05:13;;;;;;;43.57;40.17;;;16.70;99.90;;;;;;4970050;28;20440;-73
2023/05/08 03:07:42;;;;;;;44.03;40.87;;;16.70;99.90;;;;;;4969797;28;20605;-74
2023/05/08 03:10:14;;;;;;;44.40;41.10;;;16.60;99.90;;;;;;4965641;28;20456;-74
2023/05/08 03:12:45;;;;;;;43.13;40.13;;;16.60;99.90;;;;;;4969327;28;21157;-75
2023/05/08 03:15:17;;;;;;;41.77;38.57;;;16.60;99.90;;;;;;4969381;28;20518;-75
2023/05/08 03:17:47;;;;;;;40.53;38.13;;;16.60;99.90;;;;;;4969894;28;20444;-75
2023/05/08 03:20:17;;;;;;;41.43;38.57;;;16.50;99.90;;;;;;4970440;28;20456;-75
2023/05/08 03:22:45;;;;;;;40.40;37.77;;;16.50;99.90;;;;;;4970571;28;20462;-75
2023/05/08 03:25:15;;;;;;;40.20;37.47;;;16.60;99.90;;;;;;4970517;28;20478;-75
2023/05/08 03:27:44;;;;;;;41.47;38.70;;;16.60;99.90;;;;;;4970318;28;20483;-73
2023/05/08 03:30:12;;;;;;;39.07;36.47;;;16.70;99.90;;;;;;4970335;28;20455;-74
2023/05/08 03:32:39;;;;;;;38.07;35.37;;;16.70;99.90;;;;;;4970554;28;20452;-74
2023/05/08 03:35:08;;;;;;;38.17;35.90;;;16.70;99.90;;;;;;4970625;28;20459;-73
2023/05/08 03:37:35;;;;;;;37.50;35.23;;;16.60;99.90;;;;;;4970798;28;20498;-73
2023/05/08 03:40:03;;;;;;;37.40;35.20;;;16.50;99.90;;;;;;4970691;28;20480;-73
2023/05/08 03:42:31;;;;;;;37.07;34.90;;;16.50;99.90;;;;;;4969886;28;20483;-74
2023/05/08 03:45:00;;;;;;;35.27;33.10;;;16.40;99.90;;;;;;4970124;28;20459;-72
2023/05/08 03:47:28;;;;;;;34.63;32.83;;;16.40;99.90;;;;;;4969942;28;20848;-73
2023/05/08 03:49:55;;;;;;;36.40;34.20;;;16.40;99.90;;;;;;4970134;28;20461;-72
2023/05/08 03:52:23;;;;;;;35.20;32.90;;;16.60;99.90;;;;;;4970104;28;20830;-73
2023/05/08 03:54:50;;;;;;;32.20;30.40;;;16.50;99.90;;;;;;4970246;28;20463;-74
2023/05/08 03:57:17;;;;;;;32.60;30.80;;;16.50;99.90;;;;;;4970322;28;20458;-75
2023/05/08 03:59:51;;;;;;;32.60;30.80;;;16.50;99.90;;;;;;4970181;28;20456;-75
2023/05/08 04:02:24;;;;;;;31.80;30.00;;;16.50;99.90;;;;;;4964974;28;20475;-73
2023/05/08 04:05:05;;;;;;;30.50;28.90;;;16.50;99.90;;;;;;4970175;28;20456;-73
2023/05/08 04:07:37;;;;;;;32.00;29.90;;;16.50;99.90;;;;;;4970185;28;20487;-73
2023/05/08 04:10:09;;;;;;;32.83;30.83;;;16.50;99.90;;;;;;4970494;28;20463;-74
2023/05/08 04:12:40;;;;;;;34.97;32.50;;;16.40;99.90;;;;;;4970332;28;20455;-73
2023/05/08 04:15:13;;;;;;;33.40;31.13;;;16.30;99.90;;;;;;4970191;28;20474;-73
2023/05/08 04:17:45;;;;;;;31.33;29.43;;;16.30;99.90;;;;;;4969994;28;20454;-73
2023/05/08 04:20:19;;;;;;;33.07;30.60;;;16.40;99.90;;;;;;4969947;28;20448;-73
2023/05/08 04:22:47;;;;;;;33.10;31.10;;;16.40;99.90;;;;;;4970504;28;20456;-73
2023/05/08 04:25:16;;;;;;;32.10;30.13;;;16.40;99.90;;;;;;4970942;28;20463;-73
2023/05/08 04:27:44;;;;;;;32.07;30.17;;;16.40;99.90;;;;;;4970526;28;20523;-74
2023/05/08 04:30:11;;;;;;;31.80;29.90;;;16.50;99.90;;;;;;4970704;28;20682;-73
2023/05/08 04:32:39;;;;;;;31.23;29.33;;;16.60;99.90;;;;;;4970788;28;20455;-73
2023/05/08 04:35:08;;;;;;;31.27;29.43;;;16.50;99.90;;;;;;4970842;28;20448;-74
2023/05/08 04:37:34;;;;;;;30.87;28.73;;;16.50;99.90;;;;;;4971305;28;20455;-74
2023/05/08 04:40:02;;;;;;;31.20;29.17;;;16.40;99.90;;;;;;4970680;28;20816;-74
2023/05/08 04:42:29;;;;;;;33.33;31.00;;;16.60;99.90;;;;;;4970437;28;20565;-74
2023/05/08 04:44:56;;;;;;;32.63;30.50;;;16.70;99.90;;;;;;4970366;28;20458;-74
2023/05/08 04:47:23;;;;;;;31.10;29.20;;;16.70;99.90;;;;;;4970528;28;20487;-74
2023/05/08 04:49:50;;;;;;;30.00;28.10;;;16.80;99.90;;;;;;4970737;28;20456;-74
2023/05/08 04:52:18;;;;;;;29.77;27.77;;;17.00;99.90;;;;;;4970643;28;20827;-75
2023/05/08 04:54:44;;;;;;;29.43;27.83;;;17.00;99.90;;;;;;4973043;28;20452;-75
2023/05/08 04:57:11;;;;;;;29.27;27.57;;;17.10;99.90;;;;;;4974073;28;20451;-75
2023/05/08 04:59:38;;;;;;;29.73;27.97;;;17.10;99.90;;;;;;4973904;28;20462;-74
2023/05/08 05:02:07;;;;;;;28.77;27.07;;;17.20;99.90;;;;;;4968832;28;20476;-75
2023/05/08 05:04:34;;;;;;;30.80;28.90;;;17.20;99.90;;;;;;4974156;28;20456;-75
2023/05/08 05:07:01;;;;;;;28.80;27.20;;;17.20;99.90;;;;;;4973659;28;20542;-74
2023/05/08 05:09:29;;;;;;;27.10;25.33;;;17.30;99.90;;;;;;4973810;28;20534;-75
2023/05/08 05:11:56;;;;;;;27.60;25.90;;;17.30;99.90;;;;;;4973378;28;20467;-75
2023/05/08 05:14:23;;;;;;;28.47;26.57;;;17.20;99.90;;;;;;4973894;28;20456;-74
2023/05/08 05:16:49;;;;;;;27.97;26.50;;;17.30;99.90;;;;;;4973611;28;20455;-75
2023/05/08 05:19:16;;;;;;;27.90;26.23;;;17.30;99.90;;;;;;4973539;28;20463;-74
2023/05/08 05:21:43;;;;;;;28.97;27.17;;;17.30;99.90;;;;;;4973482;28;20452;-75
2023/05/08 05:24:09;;;;;;;30.73;28.83;;;17.20;99.90;;;;;;4973557;28;20462;-75
2023/05/08 05:26:38;;;;;;;28.90;27.10;;;17.20;99.90;;;;;;4973655;28;20550;-75
2023/05/08 05:29:04;;;;;;;29.43;27.50;;;17.20;99.90;;;;;;4973576;28;20491;-75
2023/05/08 05:31:31;;;;;;;31.03;29.10;;;17.20;99.90;;;;;;4973276;28;20489;-74
2023/05/08 05:33:59;;;;;;;32.63;30.57;;;17.10;99.90;;;;;;4973307;28;20483;-75
2023/05/08 05:36:26;;;;;;;33.73;31.47;;;17.00;99.90;;;;;;4973159;28;20448;-73
2023/05/08 05:38:52;;;;;;;33.40;31.40;;;17.10;99.90;;;;;;4973156;28;20467;-73
2023/05/08 05:41:19;;;;;;;36.73;34.23;;;17.10;99.90;;;;;;4973031;28;20472;-72
2023/05/08 05:43:47;;;;;;;38.47;36.00;;;17.10;99.90;;;;;;4973354;28;20487;-74
2023/05/08 05:46:14;;;;;;;41.77;39.07;;;17.10;99.90;;;;;;4973321;28;20463;-73
2023/05/08 05:48:41;;;;;;;46.03;43.03;;;17.10;99.90;;;;;;4973163;28;20853;-73
2023/05/08 05:51:07;;;;;;;47.10;44.17;;;17.00;99.90;;;;;;4973186;28;20455;-74
2023/05/08 05:53:34;;;;;;;48.30;45.20;;;17.10;99.90;;;;;;4973053;28;20451;-73
2023/05/08 05:56:01;;;;;;;47.60;44.37;;;16.90;99.90;;;;;;4972878;28;20836;-73
2023/05/08 05:58:28;;;;;;;48.87;45.67;;;17.00;99.90;;;;;;4973087;28;20459;-73
2023/05/08 06:00:59;;;;;;;47.50;44.30;;;17.10;99.90;;;;;;4972915;28;20459;-73
2023/05/08 06:03:26;;;;;;;48.13;44.67;;;17.10;99.90;;;;;;4965923;28;20491;-74
2023/05/08 06:05:53;;;;;;;49.80;46.30;;;17.20;99.90;;;;;;4971909;28;20460;-73
2023/05/08 06:08:19;;;;;;;47.53;44.30;;;17.30;99.90;;;;;;4972276;28;20514;-74
2023/05/08 06:10:46;;;;;;;46.50;43.20;;;17.40;99.90;;;;;;4972238;28;20451;-72
2023/05/08 06:13:13;;;;;;;52.33;48.53;;;17.40;99.90;;;;;;4970932;28;20464;-73
2023/05/08 06:15:40;;;;;;;49.17;45.80;;;17.50;99.90;;;;;;4971143;28;20451;-72
2023/05/08 06:18:08;;;;;;;48.30;45.10;;;17.40;99.90;;;;;;4972409;28;20822;-70
2023/05/08 06:20:37;;;;;;;46.17;43.00;;;17.50;99.90;;;;;;4972207;28;20456;-72
2023/05/08 06:23:03;;;;;;;46.37;43.40;;;17.60;99.90;;;;;;4972336;28;20474;-72
2023/05/08 06:25:30;;;;;;;47.43;44.20;;;17.70;99.90;;;;;;4971985;28;20455;-73
2023/05/08 06:27:57;;;;;;;47.93;44.87;;;17.60;99.90;;;;;;4971920;28;20623;-72
2023/05/08 06:30:24;;;;;;;45.43;42.60;;;17.60;99.90;;;;;;4971864;28;20459;-73
2023/05/08 06:32:50;;;;;;;46.97;43.97;;;17.70;99.90;;;;;;4972154;28;20555;-73
2023/05/08 06:35:19;;;;;;;46.40;43.30;;;17.70;99.90;;;;;;4972238;28;20447;-73
2023/05/08 06:37:45;;;;;;;44.53;41.73;;;17.70;99.90;;;;;;4972040;28;20452;-71
2023/05/08 06:40:13;;;;;;;44.63;41.97;;;17.70;99.90;;;;;;4971569;28;20490;-71
2023/05/08 06:42:40;;;;;;;45.13;42.40;;;17.70;99.90;;;;;;4971577;28;20487;-72
2023/05/08 06:45:08;;;;;;;45.57;42.77;;;17.50;99.90;;;;;;4971830;28;20474;-73
2023/05/08 06:47:35;;;;;;;43.57;40.77;;;17.60;99.90;;;;;;4971883;28;20466;-73
2023/05/08 06:50:02;;;;;;;41.90;39.50;;;17.50;99.90;;;;;;4972416;28;20460;-73
2023/05/08 06:52:30;;;;;;;43.67;41.00;;;17.50;99.90;;;;;;4969987;28;20891;-73
2023/05/08 06:54:56;;;;;;;42.33;39.70;;;17.50;99.90;;;;;;4971458;28;20452;-74
2023/05/08 06:57:25;;;;;;;44.37;41.70;;;17.50;99.90;;;;;;4971597;28;20487;-74
2023/05/08 06:59:52;;;;;;;41.20;38.90;;;17.60;99.90;;;;;;4971707;28;20880;-72
2023/05/08 07:02:19;;;;;;;38.57;36.30;;;17.60;99.90;;;;;;4971783;28;20792;-74
2023/05/08 07:04:46;;;;;;;36.60;34.40;;;17.70;99.90;;;;;;4971412;28;20451;-73
2023/05/08 07:07:13;;;;;;;33.77;31.80;;;17.70;99.90;;;;;;4971055;28;20839;-75
2023/05/08 07:09:41;;;;;;;31.00;29.20;;;17.80;99.90;;;;;;4971171;28;20492;-72
2023/05/08 07:12:08;;;;;;;28.73;27.10;;;17.90;99.90;;;;;;4971303;28;20470;-75
2023/05/08 07:14:35;;;;;;;27.50;25.93;;;18.00;99.90;;;;;;4971377;28;20460;-74
2023/05/08 07:17:05;;;;;;;27.43;25.77;;;18.20;99.90;;;;;;4970464;28;20478;-75
2023/05/08 07:19:32;;;;;;;26.50;25.00;;;18.40;99.90;;;;;;4971285;28;20554;-75
2023/05/08 07:21:59;;;;;;;25.47;23.93;;;18.50;99.90;;;;;;4971112;28;20566;-74
2023/05/08 07:24:26;;;;;;;24.27;22.67;;;18.50;99.90;;;;;;4971211;28;20447;-75
2023/05/08 07:26:54;;;;;;;25.83;24.43;;;18.60;99.90;;;;;;4970926;28;20526;-74
2023/05/08 07:29:21;;;;;;;25.67;24.07;;;18.80;99.90;;;;;;4971290;28;20484;-74
2023/05/08 07:31:48;;;;;;;26.13;24.37;;;18.70;99.90;;;;;;4970891;28;20944;-74
2023/05/08 07:34:14;;;;;;;26.47;24.97;;;18.80;99.90;;;;;;4971123;28;20502;-74
2023/05/08 07:36:41;;;;;;;26.07;24.37;;;18.70;99.90;;;;;;4971187;28;20802;-75
2023/05/08 07:39:08;;;;;;;25.03;23.63;;;18.80;99.90;;;;;;4970876;28;20448;-74
2023/05/08 07:41:37;;;;;;;24.17;22.87;;;18.80;99.90;;;;;;4970659;28;20499;-74
2023/05/08 07:44:05;;;;;;;24.20;22.80;;;18.80;99.90;;;;;;4971339;28;20866;-73
2023/05/08 07:46:32;;;;;;;25.37;23.90;;;18.80;99.90;;;;;;4971229;28;20456;-74
2023/05/08 07:48:59;;;;;;;23.90;22.50;;;18.80;99.90;;;;;;4965465;28;20507;-73
2023/05/08 07:51:26;;;;;;;24.93;23.50;;;18.80;99.90;;;;;;4970767;28;20530;-74
2023/05/08 07:53:53;;;;;;;24.80;22.93;;;18.70;99.90;;;;;;4974506;28;20528;-74
2023/05/08 07:56:20;;;;;;;23.23;21.53;;;18.50;99.90;;;;;;4985302;28;20520;-73
2023/05/08 07:58:47;;;;;;;23.53;22.23;;;18.60;99.90;;;;;;4973510;28;20451;-73
2023/05/08 08:01:16;;;;;;;26.33;24.53;;;18.80;99.90;;;;;;4973169;28;20550;-74
2023/05/08 08:03:43;;;;;;;21.50;20.13;;;18.90;99.90;;;;;;4989660;28;20462;-73
2023/05/08 08:06:10;;;;;;;19.73;18.40;;;18.90;99.90;;;;;;4989628;28;20453;-75
2023/05/08 08:08:37;;;;;;;21.13;19.93;;;19.10;99.90;;;;;;4989618;28;20494;-75
2023/05/08 08:11:04;;;;;;;19.60;18.17;;;19.20;99.90;;;;;;4976966;28;20543;-75
2023/05/08 08:13:31;;;;;;;20.00;18.73;;;19.40;99.90;;;;;;4970600;28;20451;-75
2023/05/08 08:15:58;;;;;;;18.50;17.60;;;19.80;99.90;;;;;;4970528;28;20881;-74
2023/05/08 08:18:26;;;;;;;24.50;22.90;;;20.20;99.90;;;;;;4970489;28;20456;-75
2023/05/08 08:20:53;;;;;;;28.83;26.93;;;20.80;99.90;;;;;;4970690;28;20452;-74
2023/05/08 08:23:19;;;;;;;24.00;22.37;;;21.20;99.90;;;;;;4970759;28;20455;-74
2023/05/08 08:25:46;;;;;;;20.40;19.20;;;21.50;99.90;;;;;;4970450;28;20961;-75
2023/05/08 08:28:13;;;;;;;17.30;16.40;;;21.80;99.90;;;;;;4986006;28;20988;-76
2023/05/08 08:30:39;;;;;;;16.90;15.90;;;22.30;99.90;;;;;;4993801;28;20863;-74
2023/05/08 08:33:06;;;;;;;20.07;19.07;;;22.30;99.90;;;;;;4993953;28;20458;-76
2023/05/08 08:35:34;;;;;;;19.10;18.10;;;22.10;99.90;;;;;;4993974;28;20461;-75
2023/05/08 08:38:01;;;;;;;18.67;17.67;;;21.70;99.90;;;;;;4993536;28;20509;-75
2023/05/08 08:40:28;;;;;;;19.43;18.40;;;21.30;99.90;;;;;;4993451;28;20823;-75
2023/05/08 08:42:55;;;;;;;21.63;20.40;;;21.20;99.90;;;;;;4993527;28;20489;-75
2023/05/08 08:45:21;;;;;;;21.90;20.70;;;21.10;99.90;;;;;;4993566;28;20486;-75
2023/05/08 08:47:51;;;;;;;22.10;20.70;;;20.70;99.90;;;;;;4993602;28;20936;-73
2023/05/08 08:50:20;;;;;;;21.30;19.97;;;20.60;99.90;;;;;;4993550;28;20497;-74
2023/05/08 08:52:57;;;;;;;21.87;20.77;;;20.30;99.90;;;;;;4993633;28;20457;-73
2023/05/08 08:55:26;;;;;;;22.80;21.60;;;19.60;99.90;;;;;;4993472;28;20450;-74
2023/05/08 08:58:03;;;;;;;23.80;22.60;;;19.30;99.90;;;;;;4993392;28;20466;-74
2023/05/08 09:00:31;;;;;;;26.30;24.90;;;19.00;99.90;;;;;;4993210;28;20461;-72
2023/05/08 09:02:58;;;;;;;31.03;29.20;;;18.70;99.90;;;;;;4974972;28;20502;-74
2023/05/08 09:05:25;;;;;;;33.33;31.37;;;18.50;99.90;;;;;;4974077;28;20965;-74
2023/05/08 09:07:55;;;;;;;34.43;32.40;;;18.40;99.90;;;;;;4973876;28;20471;-73
2023/05/08 09:10:23;;;;;;;34.40;32.20;;;18.40;99.90;;;;;;4968571;28;20704;-74
2023/05/08 09:12:50;;;;;;;36.70;34.40;;;18.40;99.90;;;;;;4973826;28;20459;-75
2023/05/08 09:15:17;;;;;;;37.07;34.73;;;18.10;99.90;;;;;;4973654;28;20984;-75
2023/05/08 09:17:44;;;;;;;38.00;35.50;;;17.90;99.90;;;;;;4973669;28;20460;-75
2023/05/08 09:20:13;;;;;;;38.30;36.10;;;17.90;99.90;;;;;;4973428;28;20974;-74
2023/05/08 09:22:42;;;;;;;39.57;37.17;;;17.80;99.90;;;;;;4973414;28;20460;-74
2023/05/08 09:25:10;;;;;;;41.10;38.50;;;17.80;99.90;;;;;;4973362;28;20455;-75
2023/05/08 09:27:37;;;;;;;38.97;36.57;;;18.10;99.90;;;;;;4973396;28;20456;-75
2023/05/08 09:30:06;;;;;;;37.00;34.93;;;18.30;99.90;;;;;;4973778;28;20491;-74
2023/05/08 09:32:36;;;;;;;37.90;35.73;;;18.20;99.90;;;;;;4973610;28;20460;-75
2023/05/08 09:35:04;;;;;;;37.53;35.30;;;18.40;99.90;;;;;;4973463;28;20816;-75
2023/05/08 09:37:31;;;;;;;36.40;34.30;;;18.60;99.90;;;;;;4973419;28;20460;-76
2023/05/08 09:42:54;;;;;;;31.87;29.87;;;18.80;99.90;;;;;;5085842;28;20524;-74
2023/05/08 09:45:28;;;;;;;30.53;28.27;;;19.30;99.90;;;;;;5087273;28;20442;-74
2023/05/08 09:47:55;;;;;;;26.07;24.40;;;19.70;99.90;;;;;;5087342;28;20457;-75
2023/05/08 09:50:21;;;;;;;25.13;23.33;;;20.00;99.90;;;;;;5087351;28;20629;-74
2023/05/08 09:52:49;;;;;;;23.93;22.07;;;20.10;99.90;;;;;;5087470;28;20449;-74
2023/05/08 09:55:17;;;;;;;25.10;23.40;;;20.40;99.90;;;;;;5087094;28;20451;-75
2023/05/08 09:57:55;;;;;;;25.13;23.50;;;20.60;99.90;;;;;;5087148;28;20450;-75
2023/05/08 10:00:22;;;;;;;24.17;22.70;;;20.90;99.90;;;;;;5087329;28;20477;-75
2023/05/08 10:02:57;;;;;;;22.63;21.00;;;21.20;99.90;;;;;;5086858;28;20481;-75
2023/05/08 10:05:26;;;;;;;22.47;21.07;;;21.40;99.90;;;;;;5086704;28;20915;-74
2023/05/08 10:07:53;;;;;;;22.27;20.67;;;21.80;99.90;;;;;;5087179;28;20464;-74
2023/05/08 10:10:25;;;;;;;20.77;19.30;;;21.90;99.90;;;;;;5087050;28;20438;-74
2023/05/08 10:12:55;;;;;;;23.17;21.57;;;22.30;99.90;;;;;;5086744;28;20542;-74
2023/05/08 10:15:24;;;;;;;23.27;21.83;;;22.30;99.90;;;;;;5086720;28;20451;-74
2023/05/08 10:17:54;;;;;;;22.60;21.30;;;21.90;99.90;;;;;;5086574;28;20453;-74
2023/05/08 10:20:22;;;;;;;23.63;21.93;;;22.10;99.90;;;;;;5086741;28;20824;-75
2023/05/08 10:22:49;;;;;;;23.10;21.70;;;22.40;99.90;;;;;;5086681;28;20491;-76
2023/05/08 10:25:17;;;;;;;22.30;20.80;;;22.30;99.90;;;;;;5086388;28;20446;-75
2023/05/08 10:27:53;;;;;;;21.17;19.97;;;22.70;99.90;;;;;;5086393;28;20959;-74
2023/05/08 10:30:25;;;;;;;22.67;21.40;;;22.80;99.90;;;;;;5086276;28;20481;-74
2023/05/08 10:32:54;;;;;;;21.10;19.90;;;22.90;99.90;;;;;;5086557;28;20783;-74
2023/05/08 10:35:22;;;;;;;25.00;22.97;;;22.90;99.90;;;;;;5086487;28;20454;-75
2023/05/08 10:37:49;;;;;;;23.80;22.20;;;22.90;99.90;;;;;;5086422;28;20541;-73
2023/05/08 10:40:17;;;;;;;22.30;21.00;;;22.50;99.90;;;;;;5086223;28;20478;-73
2023/05/08 10:42:45;;;;;;;24.47;23.07;;;22.50;99.90;;;;;;5085801;28;20628;-73
2023/05/08 10:45:12;;;;;;;23.80;22.47;;;22.50;99.90;;;;;;5086146;28;20590;-73
2023/05/08 10:47:54;;;;;;;19.83;18.83;;;22.50;99.90;;;;;;5086294;28;20463;-74
2023/05/08 10:50:51;;;;;;;23.10;21.60;;;22.50;99.90;;;;;;5086332;28;20453;-73
2023/05/08 10:53:22;;;;;;;23.93;22.63;;;22.40;99.90;;;;;;5077715;28;20459;-74
2023/05/08 10:55:51;;;;;;;24.77;23.37;;;22.20;99.90;;;;;;5072633;28;20485;-74
2023/05/08 10:58:29;;;;;;;24.90;23.30;;;21.80;99.90;;;;;;5072681;28;20442;-73
2023/05/08 11:01:14;;;;;;;23.07;21.77;;;21.60;99.90;;;;;;5072149;28;20443;-73
2023/05/08 11:03:46;;;;;;;23.50;22.17;;;21.50;99.90;;;;;;5072157;28;20528;-73
2023/05/08 11:06:15;;;;;;;24.57;23.27;;;21.90;99.90;;;;;;5066822;28;20451;-72
2023/05/08 11:08:53;;;;;;;22.23;20.93;;;22.00;99.90;;;;;;5071759;28;20681;-73
2023/05/08 11:11:30;;;;;;;22.73;21.53;;;22.10;99.90;;;;;;5072155;28;20496;-73
2023/05/08 11:14:10;;;;;;;24.80;23.37;;;22.10;99.90;;;;;;5071892;28;20483;-73
2023/05/08 11:17:09;;;;;;;27.50;25.90;;;21.80;99.90;;;;;;5072168;28;20505;-73
2023/05/08 11:19:38;;;;;;;29.03;27.17;;;21.60;99.90;;;;;;5071800;28;20451;-76
2023/05/08 11:22:23;;;;;;;31.17;29.47;;;21.40;99.90;;;;;;5071702;28;20552;-75
2023/05/08 11:24:54;;;;;;;33.03;31.20;;;21.10;99.90;;;;;;5071686;28;20443;-75
2023/05/08 11:27:41;;;;;;;35.97;33.97;;;20.90;99.90;;;;;;5071450;28;20447;-75
2023/05/08 11:30:23;;;;;;;40.40;38.00;;;20.90;99.90;;;;;;5071252;28;20982;-76
2023/05/08 11:33:15;;;;;;;40.30;37.90;;;21.00;99.90;;;;;;5071507;28;20439;-74
2023/05/08 11:35:50;;;;;;;38.73;36.73;;;20.70;99.90;;;;;;5070947;28;20817;-74
2023/05/08 11:38:28;;;;;;;38.33;36.20;;;21.30;99.90;;;;;;5071144;28;20870;-74
2023/05/08 11:41:03;;;;;;;38.10;35.80;;;21.60;99.90;;;;;;5070877;28;20493;-74
2023/05/08 11:43:51;;;;;;;31.50;29.83;;;22.00;99.90;;;;;;5070921;28;20462;-74
2023/05/08 11:46:20;;;;;;;28.77;27.17;;;22.30;99.90;;;;;;5071027;28;20436;-75
2023/05/08 11:48:47;;;;;;;26.17;24.63;;;22.60;99.90;;;;;;5070991;28;20486;-74
2023/05/08 11:51:17;;;;;;;22.83;21.47;;;22.70;99.90;;;;;;5070611;28;20465;-75
2023/05/08 11:53:45;;;;;;;21.27;20.07;;;22.60;99.90;;;;;;5070584;28;20963;-75
2023/05/08 11:56:12;;;;;;;22.03;20.80;;;22.90;99.90;;;;;;5070361;28;20459;-74
2023/05/08 11:58:39;;;;;;;22.50;21.10;;;23.40;99.90;;;;;;5070545;28;20455;-75
2023/05/08 12:01:06;;;;;;;21.83;20.57;;;23.90;99.90;;;;;;5070525;28;20893;-74
2023/05/08 12:03:33;;;;;;;18.57;17.57;;;23.90;99.90;;;;;;5070600;28;20862;-74
2023/05/08 12:06:00;;;;;;;21.33;20.13;;;24.10;99.90;;;;;;5069371;28;20447;-74
2023/05/08 12:08:28;;;;;;;23.00;21.60;;;24.80;99.90;;;;;;5070387;28;20651;-73
2023/05/08 12:10:57;;;;;;;21.13;19.80;;;25.30;99.90;;;;;;5070253;28;20447;-74
2023/05/08 12:13:25;;;;;;;20.57;19.40;;;26.00;99.90;;;;;;5070290;28;20459;-74
2023/05/08 12:15:54;;;;;;;23.43;22.10;;;26.50;99.90;;;;;;5070381;28;20454;-73
2023/05/08 12:18:21;;;;;;;23.13;21.83;;;26.10;99.90;;;;;;5070175;28;20458;-72
2023/05/08 12:20:52;;;;;;;23.93;22.43;;;25.80;99.90;;;;;;5064973;28;20520;-74
2023/05/08 12:23:19;;;;;;;23.77;22.50;;;25.90;99.90;;;;;;5070407;28;20555;-72
2023/05/08 12:25:47;;;;;;;23.17;21.97;;;25.70;99.90;;;;;;5069985;28;20538;-72
2023/05/08 12:28:13;;;;;;;22.17;21.03;;;26.30;99.90;;;;;;5069925;28;20458;-72
2023/05/08 12:30:41;;;;;;;23.30;22.00;;;25.60;99.30;;;;;;5070109;28;20458;-72
2023/05/08 12:33:08;;;;;;;23.73;22.53;;;24.90;99.90;;;;;;5070127;28;20454;-72
2023/05/08 12:35:36;;;;;;;22.00;20.90;;;25.30;99.90;;;;;;5069969;28;20470;-72
2023/05/08 12:38:03;;;;;;;22.47;21.27;;;25.60;99.90;;;;;;5069970;28;20443;-72
2023/05/08 12:40:31;;;;;;;21.10;20.00;;;26.00;99.50;;;;;;5069442;28;20570;-72
2023/05/08 12:43:02;;;;;;;23.10;21.80;;;26.40;97.80;;;;;;5070104;28;20848;-72
2023/05/08 12:45:32;;;;;;;22.10;21.00;;;26.50;97.70;;;;;;5069674;28;20451;-73
2023/05/08 12:48:00;;;;;;;23.80;22.50;;;26.70;97.10;;;;;;5069421;28;20520;-73
2023/05/08 12:50:29;;;;;;;23.30;22.13;;;27.10;97.10;;;;;;5069612;28;20818;-73
2023/05/08 12:53:01;;;;;;;24.20;22.90;;;27.00;96.20;;;;;;5069723;28;20778;-71
2023/05/08 12:55:29;;;;;;;22.30;21.10;;;26.30;97.10;;;;;;5069706;28;20444;-75
2023/05/08 12:58:02;;;;;;;21.27;20.20;;;25.50;97.70;;;;;;5069273;28;20984;-72
2023/05/08 13:00:36;;;;;;;21.70;20.60;;;25.60;98.60;;;;;;5069285;28;20477;-72
2023/05/08 13:03:03;;;;;;;22.70;21.50;;;26.00;98.90;;;;;;5069728;28;20506;-75
2023/05/08 13:05:30;;;;;;;22.67;21.37;;;27.10;97.20;;;;;;5069554;28;20458;-74
2023/05/08 13:08:01;;;;;;;24.33;23.00;;;28.70;94.50;;;;;;5069301;28;20455;-74
2023/05/08 13:10:43;;;;;;;22.50;21.37;;;28.20;94.80;;;;;;5069109;28;20945;-74
2023/05/08 13:13:11;;;;;;;22.07;20.83;;;27.30;96.30;;;;;;5069174;28;20478;-74
2023/05/08 13:15:38;;;;;;;26.00;24.67;;;26.80;96.10;;;;;;5069029;28;20451;-74
2023/05/08 13:18:06;;;;;;;23.90;22.60;;;25.30;98.20;;;;;;5069606;28;20462;-75
2023/05/08 13:20:33;;;;;;;25.70;24.20;;;24.30;99.90;;;;;;5069522;28;21030;-75
2023/05/08 13:22:59;;;;;;;24.67;23.13;;;23.60;99.90;;;;;;5069350;28;20901;-73
2023/05/08 13:25:26;;;;;;;25.20;23.63;;;23.20;99.90;;;;;;5069036;28;20450;-74
2023/05/08 13:27:53;;;;;;;25.30;24.00;;;23.00;99.90;;;;;;5069103;28;20733;-75
2023/05/08 13:30:22;;;;;;;25.47;23.87;;;22.60;99.90;;;;;;5069512;28;20519;-74
2023/05/08 13:32:48;;;;;;;23.80;22.40;;;22.30;99.90;;;;;;5069522;28;20443;-75
2023/05/08 13:35:15;;;;;;;22.87;21.47;;;22.30;99.90;;;;;;5069540;28;20456;-74
2023/05/08 13:37:42;;;;;;;22.60;21.47;;;22.20;99.90;;;;;;5068861;28;20987;-75
2023/05/08 13:40:09;;;;;;;24.43;22.97;;;22.30;99.90;;;;;;5068808;28;20474;-75
2023/05/08 13:42:36;;;;;;;23.83;22.33;;;22.40;99.90;;;;;;5069320;28;20491;-75
2023/05/08 13:45:03;;;;;;;23.67;22.03;;;22.50;99.90;;;;;;5068947;28;20470;-75
2023/05/08 13:47:31;;;;;;;25.20;23.60;;;22.70;99.90;;;;;;5069018;28;20446;-75
2023/05/08 13:49:58;;;;;;;25.13;23.63;;;22.80;99.90;;;;;;5068755;28;20738;-75
2023/05/08 13:52:27;;;;;;;22.63;21.23;;;22.70;99.90;;;;;;5068996;28;20451;-75
2023/05/08 13:54:54;;;;;;;24.10;22.67;;;22.90;99.90;;;;;;5068832;28;20550;-74
2023/05/08 13:57:21;;;;;;;22.67;21.37;;;23.10;99.90;;;;;;5069021;28;20687;-74
2023/05/08 13:59:48;;;;;;;24.07;22.47;;;23.20;99.90;;;;;;5069019;28;20931;-76
2023/05/08 14:02:15;;;;;;;23.43;22.13;;;23.60;99.90;;;;;;5068505;28;20506;-76
2023/05/08 14:04:43;;;;;;;21.97;20.83;;;23.80;99.90;;;;;;5068823;28;20451;-75
2023/05/08 14:07:09;;;;;;;24.73;23.27;;;24.00;99.90;;;;;;5068790;28;20455;-75
2023/05/08 14:09:36;;;;;;;25.50;23.97;;;23.90;99.90;;;;;;5068860;28;20471;-74
2023/05/08 14:12:03;;;;;;;23.13;21.83;;;23.90;99.90;;;;;;5068816;28;20878;-75
2023/05/08 14:14:30;;;;;;;22.97;21.57;;;24.10;99.90;;;;;;5068347;28;20459;-75
2023/05/08 14:16:56;;;;;;;23.10;21.90;;;24.10;99.90;;;;;;5057513;28;20455;-74
2023/05/08 14:19:23;;;;;;;23.43;21.83;;;23.70;99.90;;;;;;5058087;28;20442;-74
2023/05/08 14:21:51;;;;;;;22.10;20.90;;;23.30;99.90;;;;;;5058640;28;20455;-75
2023/05/08 14:24:18;;;;;;;21.57;20.33;;;22.80;99.90;;;;;;5057096;28;20444;-75
2023/05/08 14:26:45;;;;;;;23.20;21.90;;;22.50;99.90;;;;;;5057876;28;20449;-75
2023/05/08 14:29:11;;;;;;;24.03;22.63;;;22.20;99.90;;;;;;5061427;28;20440;-75
2023/05/08 14:31:38;;;;;;;22.67;21.20;;;21.90;99.90;;;;;;5060928;28;20453;-74
2023/05/08 14:34:05;;;;;;;20.73;19.50;;;21.70;99.90;;;;;;5063242;28;20443;-75
2023/05/08 14:36:31;;;;;;;21.60;20.30;;;21.80;99.90;;;;;;5060834;28;20458;-75
2023/05/08 14:39:00;;;;;;;23.70;22.40;;;21.90;99.90;;;;;;5054742;28;20478;-75
2023/05/08 14:41:28;;;;;;;24.13;22.70;;;21.90;99.90;;;;;;5060511;28;20723;-75
2023/05/08 14:43:55;;;;;;;21.77;20.47;;;21.70;99.90;;;;;;5062031;28;20479;-75
2023/05/08 14:46:22;;;;;;;22.13;20.73;;;21.50;99.90;;;;;;5060783;28;20448;-76
2023/05/08 14:48:49;;;;;;;20.47;19.27;;;21.70;99.90;;;;;;5062862;28;20577;-75
2023/05/08 14:51:18;;;;;;;20.90;19.70;;;22.00;99.90;;;;;;5060379;28;20444;-75
2023/05/08 14:53:44;;;;;;;23.30;21.60;;;21.80;99.90;;;;;;5061343;28;20448;-75
2023/05/08 14:56:13;;;;;;;20.70;19.40;;;21.50;99.90;;;;;;5061986;28;20543;-75
2023/05/08 14:58:40;;;;;;;21.50;20.40;;;21.30;99.90;;;;;;5063229;28;20483;-75
2023/05/08 15:01:06;;;;;;;22.13;20.73;;;21.10;99.90;;;;;;5071490;28;20485;-75
2023/05/08 15:03:33;;;;;;;23.57;21.97;;;21.00;99.90;;;;;;5071593;28;20495;-74
2023/05/08 15:06:00;;;;;;;21.77;20.50;;;20.90;99.90;;;;;;5069517;28;20466;-75
2023/05/08 15:08:26;;;;;;;24.13;22.60;;;20.90;99.90;;;;;;5071206;28;20454;-75
2023/05/08 15:10:53;;;;;;;23.00;21.60;;;21.00;99.90;;;;;;5071317;28;20459;-75
2023/05/08 15:13:21;;;;;;;23.03;21.77;;;21.10;99.90;;;;;;5071203;28;20814;-76
2023/05/08 15:15:48;;;;;;;22.77;21.47;;;21.40;99.90;;;;;;5071299;28;20451;-75
2023/05/08 15:18:14;;;;;;;21.30;20.07;;;21.50;99.90;;;;;;5071647;28;20573;-75
2023/05/08 15:20:41;;;;;;;24.13;22.47;;;21.60;99.90;;;;;;5072219;28;20454;-75